Time;durP1;ratioP1;P1;durP2;ratioP2;P2;SDS_P1;SDS_P2;PMS_P1;PMS_P2;Temp;Humidity;BMP_temperature;BMP_pressure;BME280_temperature;BME280_humidity;BME280_pressure;Samples;Min_cycle;Max_cycle;Signal;HPM_P1;HPM_P2
2023/03/17 00:07:05;;;;;;;10.13;5.97;;;-1.40;99.90;;;;;;21000052;28;20506;-46
2023/03/17 00:17:11;;;;;;;11.10;6.32;;;-1.20;99.90;;;;;;20997235;28;20082;-45
2023/03/17 00:27:13;;;;;;;9.63;5.55;;;-1.10;99.90;;;;;;20996442;28;20028;-45
2023/03/17 00:37:14;;;;;;;10.10;6.35;;;-1.10;99.90;;;;;;20995920;28;20032;-46
2023/03/17 00:47:16;;;;;;;11.73;6.47;;;-1.10;99.90;;;;;;20994722;28;20033;-47
2023/03/17 00:57:18;;;;;;;11.35;6.30;;;-1.30;99.90;;;;;;20993780;28;20478;-49
2023/03/17 01:07:20;;;;;;;11.60;6.35;;;-1.40;99.90;;;;;;20992394;28;20044;-47
2023/03/17 01:17:21;;;;;;;12.88;7.07;;;-1.30;99.90;;;;;;20992485;28;20036;-46
2023/03/17 01:27:24;;;;;;;13.40;7.05;;;-1.40;99.90;;;;;;20974213;28;20120;-45
2023/03/17 01:37:26;;;;;;;10.90;6.40;;;-1.40;99.90;;;;;;20992199;28;20033;-45
2023/03/17 01:47:31;;;;;;;13.02;6.68;;;-1.40;99.90;;;;;;20989924;28;20425;-47
2023/03/17 01:57:38;;;;;;;10.40;6.57;;;-1.30;99.90;;;;;;20989372;28;20087;-45
2023/03/17 02:07:40;;;;;;;16.10;6.20;;;-1.40;99.90;;;;;;20954879;28;20075;-51
2023/03/17 02:17:42;;;;;;;15.18;7.43;;;-1.40;99.90;;;;;;20988440;28;20085;-47
2023/03/17 02:27:48;;;;;;;12.07;6.95;;;-1.50;99.90;;;;;;20987280;28;20470;-46
2023/03/17 02:37:49;;;;;;;14.48;7.38;;;-1.70;99.90;;;;;;20987245;28;20036;-46
2023/03/17 02:47:51;;;;;;;12.52;7.40;;;-1.70;99.90;;;;;;20986365;28;20044;-47
2023/03/17 02:57:53;;;;;;;14.40;7.80;;;-1.70;99.90;;;;;;20987021;28;20039;-45
2023/03/17 03:07:54;;;;;;;11.73;7.43;;;-1.80;99.90;;;;;;20986320;28;20056;-46
2023/03/17 03:17:56;;;;;;;16.83;8.30;;;-1.80;99.90;;;;;;20984173;28;20065;-47
2023/03/17 03:27:57;;;;;;;14.20;8.27;;;-1.90;99.90;;;;;;20978884;28;20037;-45
2023/03/17 03:37:59;;;;;;;16.40;8.65;;;-2.00;99.90;;;;;;21001515;28;20382;-44
2023/03/17 03:48:01;;;;;;;15.57;8.57;;;-2.00;99.90;;;;;;20999240;28;20028;-46
2023/03/17 03:58:03;;;;;;;15.32;8.30;;;-1.90;99.90;;;;;;20999024;28;20079;-46
2023/03/17 04:08:05;;;;;;;13.98;7.70;;;-2.00;99.90;;;;;;20998270;28;20045;-51
2023/03/17 04:18:07;;;;;;;14.80;8.20;;;-2.00;99.90;;;;;;20979743;28;20467;-44
2023/03/17 04:28:09;;;;;;;15.43;9.48;;;-2.00;99.90;;;;;;20940474;28;20036;-46
2023/03/17 04:38:12;;;;;;;15.90;9.05;;;-2.00;99.90;;;;;;20993840;28;20052;-45
2023/03/17 04:48:13;;;;;;;15.23;8.57;;;-2.00;99.90;;;;;;20994818;28;20082;-46
2023/03/17 04:58:15;;;;;;;14.63;9.38;;;-2.10;99.90;;;;;;20977217;28;20032;-44
2023/03/17 05:08:17;;;;;;;15.98;9.57;;;-2.10;99.90;;;;;;20911163;28;20041;-47
2023/03/17 05:18:20;;;;;;;16.23;10.20;;;-2.10;99.90;;;;;;20909695;28;20064;-45
2023/03/17 05:28:23;;;;;;;14.82;9.48;;;-2.10;99.90;;;;;;20909492;28;20502;-44
2023/03/17 05:38:25;;;;;;;18.33;9.80;;;-2.10;99.90;;;;;;20905218;28;20124;-47
2023/03/17 05:48:27;;;;;;;18.02;10.18;;;-2.00;99.90;;;;;;20906811;28;20056;-46
2023/03/17 05:58:28;;;;;;;14.90;9.70;;;-1.70;99.90;;;;;;20906718;28;20130;-45
2023/03/17 06:08:30;;;;;;;15.60;9.18;;;-1.50;99.90;;;;;;20924991;28;20044;-45
2023/03/17 06:18:31;;;;;;;16.60;9.65;;;-1.30;99.90;;;;;;20988072;28;20050;-44
2023/03/17 06:28:33;;;;;;;19.02;9.90;;;-1.10;99.90;;;;;;20987081;28;20032;-45
2023/03/17 06:38:35;;;;;;;14.63;8.73;;;-0.80;99.90;;;;;;20984401;28;20028;-47
2023/03/17 06:48:37;;;;;;;14.60;8.50;;;-0.60;99.90;;;;;;20986445;28;20036;-45
2023/03/17 06:58:38;;;;;;;16.30;8.40;;;-0.50;99.90;;;;;;20991465;28;20074;-47
2023/03/17 07:08:40;;;;;;;16.00;8.25;;;-0.40;99.90;;;;;;21004559;28;20036;-45
2023/03/17 07:18:42;;;;;;;13.32;7.95;;;-0.30;99.90;;;;;;21002017;28;20041;-46
2023/03/17 07:28:44;;;;;;;13.00;7.75;;;0.50;99.90;;;;;;21001333;28;20466;-49
2023/03/17 07:38:45;;;;;;;10.77;6.97;;;1.40;99.90;;;;;;21000940;28;20192;-48
2023/03/17 07:48:47;;;;;;;12.60;7.05;;;2.70;99.90;;;;;;20998490;28;20082;-49
2023/03/17 07:58:48;;;;;;;9.85;6.22;;;3.70;99.90;;;;;;20999104;28;20035;-50
2023/03/17 08:08:53;;;;;;;9.73;6.30;;;4.60;99.90;;;;;;20998102;28;20486;-47
2023/03/17 08:18:57;;;;;;;11.15;5.68;;;5.40;99.90;;;;;;20997649;28;20055;-50
2023/03/17 08:29:00;;;;;;;10.30;6.15;;;6.10;99.90;;;;;;20996844;28;20029;-47
2023/03/17 08:39:03;;;;;;;8.82;5.47;;;6.60;99.90;;;;;;20995490;28;20039;-47
2023/03/17 08:49:06;;;;;;;9.63;5.57;;;7.00;99.90;;;;;;20994907;28;20036;-48
2023/03/17 08:59:08;;;;;;;9.57;5.53;;;7.40;99.90;;;;;;20994770;28;20033;-48
2023/03/17 09:09:11;;;;;;;7.30;4.88;;;7.70;99.60;;;;;;20993923;28;20075;-47
2023/03/17 09:19:13;;;;;;;7.35;4.50;;;8.10;98.60;;;;;;20992432;28;20504;-50
2023/03/17 09:29:14;;;;;;;8.40;4.55;;;8.30;99.70;;;;;;20991860;28;20032;-50
2023/03/17 09:39:16;;;;;;;5.20;4.18;;;8.90;98.20;;;;;;20991128;28;20032;-48
2023/03/17 09:49:21;;;;;;;6.75;4.43;;;9.00;97.40;;;;;;20990727;28;20386;-51
2023/03/17 09:59:31;;;;;;;10.23;4.85;;;9.00;96.70;;;;;;20988656;28;20406;-46
2023/03/17 10:09:40;;;;;;;7.32;4.32;;;9.30;96.50;;;;;;20988310;28;20036;-50
2023/03/17 10:19:56;;;;;;;7.00;4.40;;;9.70;96.20;;;;;;20988030;28;20390;-51
2023/03/17 10:29:58;;;;;;;6.63;4.68;;;10.10;93.70;;;;;;20987523;28;20071;-48
2023/03/17 10:40:03;;;;;;;6.55;3.90;;;9.70;95.00;;;;;;20986726;28;20032;-49
2023/03/17 10:50:27;;;;;;;6.68;4.10;;;10.10;93.80;;;;;;20986942;28;20436;-48
2023/03/17 11:00:35;;;;;;;6.25;3.85;;;10.30;92.60;;;;;;20986301;28;20432;-48
2023/03/17 11:10:39;;;;;;;6.28;3.83;;;10.60;93.50;;;;;;20986546;28;20033;-50
2023/03/17 11:20:50;;;;;;;9.10;4.00;;;11.10;91.90;;;;;;20985328;28;20542;-49
2023/03/17 11:31:24;;;;;;;5.35;3.55;;;11.00;90.00;;;;;;20966937;28;20555;-48
2023/03/17 11:41:49;;;;;;;5.90;3.47;;;11.00;92.20;;;;;;20984759;28;20036;-47
2023/03/17 11:51:55;;;;;;;7.00;4.20;;;10.90;91.70;;;;;;20987285;28;20044;-52
2023/03/17 12:02:05;;;;;;;7.57;4.00;;;11.10;91.70;;;;;;20999137;28;20029;-49
2023/03/17 12:12:11;;;;;;;6.25;3.80;;;11.50;91.20;;;;;;20998474;28;20117;-48
2023/03/17 12:22:31;;;;;;;8.48;4.32;;;11.60;90.20;;;;;;20997743;28;20040;-47
2023/03/17 12:32:38;;;;;;;;;;;11.40;92.20;;;;;;20997812;28;20063;-53
2023/03/17 12:42:52;;;;;;;8.60;4.00;;;11.50;90.30;;;;;;20995918;28;20439;-50
2023/03/17 12:53:02;;;;;;;6.60;4.07;;;11.30;91.00;;;;;;20995573;28;20141;-47
2023/03/17 13:03:21;;;;;;;;;;;11.80;91.10;;;;;;20994368;28;20041;-52
2023/03/17 13:13:39;;;;;;;6.57;3.78;;;12.00;89.40;;;;;;20993638;28;19981;-48
2023/03/17 13:23:47;;;;;;;8.60;4.55;;;11.80;90.30;;;;;;20992621;28;20036;-51
2023/03/17 13:33:52;;;;;;;6.30;3.80;;;11.30;91.60;;;;;;20992171;28;20028;-46
2023/03/17 13:44:22;;;;;;;6.50;4.45;;;11.30;90.20;;;;;;20990097;28;20536;-49
2023/03/17 13:54:29;;;;;;;6.70;4.30;;;11.30;90.40;;;;;;20989782;28;20433;-48
2023/03/17 14:04:45;;;;;;;6.97;4.95;;;10.90;91.00;;;;;;20988369;28;20086;-49
2023/03/17 14:15:15;;;;;;;9.77;4.95;;;10.30;90.60;;;;;;20988768;28;20058;-50
2023/03/17 14:25:21;;;;;;;;;;;9.80;91.00;;;;;;20988217;28;20033;-48
2023/03/17 14:35:23;;;;;;;11.35;5.68;;;9.50;91.10;;;;;;20987458;28;20458;-46
2023/03/17 14:45:46;;;;;;;9.07;5.85;;;9.40;92.00;;;;;;20986588;28;20486;-54
2023/03/17 14:55:50;;;;;;;8.77;5.97;;;9.10;92.50;;;;;;20983181;28;20036;-50
2023/03/17 15:06:04;;;;;;;8.70;5.82;;;8.60;92.80;;;;;;20983344;28;20036;-53
2023/03/17 15:16:16;;;;;;;9.60;6.63;;;8.10;93.10;;;;;;20985317;28;20452;-53
2023/03/17 15:26:30;;;;;;;10.85;6.68;;;7.90;94.10;;;;;;21000321;28;20098;-54
2023/03/17 15:36:31;;;;;;;10.35;6.85;;;7.60;94.10;;;;;;20979961;28;20093;-45
2023/03/17 15:46:33;;;;;;;11.57;7.68;;;7.20;94.40;;;;;;20999900;28;20028;-50
2023/03/17 15:56:37;;;;;;;12.32;7.40;;;6.90;94.50;;;;;;20999267;28;20048;-47
2023/03/17 16:06:38;;;;;;;10.02;7.60;;;6.60;96.00;;;;;;20998481;28;20062;-46
2023/03/17 16:16:44;;;;;;;9.52;6.72;;;6.30;96.30;;;;;;20997760;28;20036;-54
2023/03/17 16:26:46;;;;;;;13.10;7.85;;;6.00;96.70;;;;;;20997306;28;20086;-49
2023/03/17 16:36:49;;;;;;;10.05;7.13;;;5.70;97.00;;;;;;20992104;28;20063;-50
2023/03/17 16:46:50;;;;;;;12.32;7.70;;;5.50;97.00;;;;;;20994096;28;20032;-47
2023/03/17 16:56:52;;;;;;;11.60;7.47;;;5.10;97.70;;;;;;20994753;28;20035;-46
2023/03/17 17:06:55;;;;;;;12.00;8.18;;;4.50;98.40;;;;;;20993885;28;20074;-53
2023/03/17 17:16:57;;;;;;;13.07;8.82;;;4.00;99.80;;;;;;20992549;28;20485;-46
2023/03/17 17:26:58;;;;;;;16.15;8.68;;;3.40;99.90;;;;;;20991433;28;20033;-49
2023/03/17 17:37:00;;;;;;;14.48;9.77;;;2.70;99.90;;;;;;20990522;28;20098;-47
2023/03/17 17:47:01;;;;;;;15.48;9.20;;;2.20;99.90;;;;;;20989211;28;20098;-46
2023/03/17 17:57:03;;;;;;;13.63;9.25;;;1.90;99.90;;;;;;20989237;28;20452;-45
2023/03/17 18:07:05;;;;;;;12.98;8.80;;;1.70;99.90;;;;;;20988381;28;20456;-49
2023/03/17 18:17:07;;;;;;;13.65;8.05;;;1.50;99.90;;;;;;20987922;28;20028;-45
2023/03/17 18:27:09;;;;;;;17.80;9.43;;;1.30;99.90;;;;;;20987277;28;20024;-44
2023/03/17 18:37:16;;;;;;;19.23;9.02;;;1.20;99.90;;;;;;20987345;28;20090;-49
2023/03/17 18:47:18;;;;;;;15.52;9.57;;;1.00;99.90;;;;;;20986253;28;20062;-47
2023/03/17 18:57:20;;;;;;;15.00;8.32;;;0.90;99.90;;;;;;20985085;28;20032;-51
2023/03/17 19:07:22;;;;;;;15.93;9.13;;;0.90;99.90;;;;;;20986619;28;20490;-48
2023/03/17 19:17:23;;;;;;;14.95;8.63;;;0.80;99.90;;;;;;20972612;28;20041;-49
2023/03/17 19:27:25;;;;;;;15.80;8.40;;;0.60;99.90;;;;;;20921503;28;20424;-52
2023/03/17 19:37:28;;;;;;;15.30;7.18;;;0.60;99.90;;;;;;20984414;28;20189;-47
2023/03/17 19:47:30;;;;;;;15.57;8.05;;;0.60;99.90;;;;;;20982547;28;20435;-49
2023/03/17 19:57:31;;;;;;;13.50;6.60;;;0.60;99.90;;;;;;20982379;28;20044;-49
2023/03/17 20:07:33;;;;;;;9.70;6.72;;;0.50;99.90;;;;;;20925210;28;20045;-46
2023/03/17 20:17:35;;;;;;;12.50;7.75;;;0.50;99.90;;;;;;20996361;28;20040;-46
2023/03/17 20:27:37;;;;;;;14.95;9.02;;;0.60;99.90;;;;;;20988424;28;20059;-48
2023/03/17 20:37:39;;;;;;;12.98;7.68;;;0.60;99.90;;;;;;20994880;28;20032;-47
2023/03/17 20:47:41;;;;;;;14.18;7.90;;;0.50;99.90;;;;;;20993854;28;20035;-46
2023/03/17 20:57:47;;;;;;;12.98;7.90;;;0.40;99.90;;;;;;20993089;28;20032;-50
2023/03/17 21:07:49;;;;;;;14.32;8.77;;;0.30;99.90;;;;;;20993571;28;20045;-46
2023/03/17 21:17:51;;;;;;;14.77;8.65;;;0.40;99.90;;;;;;20990621;28;20032;-47
2023/03/17 21:27:52;;;;;;;16.85;8.70;;;0.30;99.90;;;;;;20990230;28;20020;-50
2023/03/17 21:37:55;;;;;;;16.58;8.85;;;0.30;99.90;;;;;;20990178;28;20032;-47
2023/03/17 21:47:57;;;;;;;13.20;8.43;;;0.20;99.90;;;;;;20988578;28;20074;-46
2023/03/17 21:57:59;;;;;;;16.98;9.00;;;0.30;99.90;;;;;;20989070;28;20382;-45
2023/03/17 22:08:00;;;;;;;13.35;7.57;;;0.40;99.90;;;;;;20979739;28;20049;-45
2023/03/17 22:18:02;;;;;;;15.25;9.35;;;0.40;99.90;;;;;;20987864;28;20036;-48
2023/03/17 22:28:03;;;;;;;13.65;8.43;;;0.40;99.90;;;;;;20986258;28;20037;-49
2023/03/17 22:38:07;;;;;;;14.15;7.88;;;0.30;99.90;;;;;;20986981;28;20040;-50
2023/03/17 22:48:09;;;;;;;13.20;6.40;;;0.20;99.90;;;;;;20986048;28;20029;-50
2023/03/17 22:58:11;;;;;;;13.40;7.60;;;0.00;99.90;;;;;;20985519;28;20089;-48
2023/03/17 23:08:13;;;;;;;14.63;8.10;;;0.00;99.90;;;;;;20985206;28;20486;-46
2023/03/17 23:18:15;;;;;;;14.43;8.10;;;-0.10;99.90;;;;;;20979976;28;20370;-49
2023/03/17 23:28:17;;;;;;;13.95;8.20;;;0.00;99.90;;;;;;20978090;28;20101;-48
2023/03/17 23:38:20;;;;;;;13.90;7.93;;;0.00;99.90;;;;;;20985335;28;20428;-47
2023/03/17 23:48:21;;;;;;;14.18;7.15;;;-0.10;99.90;;;;;;20999416;28;20032;-47
2023/03/17 23:58:23;;;;;;;14.02;6.93;;;-0.10;99.90;;;;;;20998619;28;20134;-45
